Time,TemperatureF,DewpointF,PressureIn,WindDirection,WindDirectionDegrees,WindSpeedMPH,WindSpeedGustMPH,Humidity,HourlyPrecipIn,Conditions,Clouds,dailyrainin,SoftwareType,DateUTC
2013-01-25 00:02:00,24.0,8.0,-100.00,SE,140,4.0,13.0,51,0.00,,,-99.99,,2013-01-25 06:02:00,
2013-01-25 00:11:00,24.0,8.0,-100.00,South,170,4.0,11.0,51,0.00,,,-99.99,,2013-01-25 06:11:00,
2013-01-25 00:21:00,24.0,8.0,-100.00,SSE,160,9.0,12.0,51,0.00,,,-99.99,,2013-01-25 06:21:00,
2013-01-25 00:32:00,24.0,8.0,-100.00,SSE,160,9.0,14.0,51,0.00,,,-99.99,,2013-01-25 06:32:00,
2013-01-25 00:41:00,24.0,8.0,-100.00,SSE,160,10.0,15.0,51,0.00,,,-99.99,,2013-01-25 06:41:00,
2013-01-25 00:52:00,24.0,8.0,-100.00,SSE,160,9.0,17.0,51,0.00,,,-99.99,,2013-01-25 06:52:00,
2013-01-25 01:02:00,24.0,8.0,-100.00,SSE,160,9.0,17.0,51,0.00,,,-99.99,,2013-01-25 07:02:00,
2013-01-25 01:11:00,23.0,8.0,-100.00,SSE,150,9.0,14.0,51,0.00,,,-99.99,,2013-01-25 07:11:00,
2013-01-25 01:21:00,24.0,8.0,-100.00,South,170,9.0,12.0,51,0.00,,,-99.99,,2013-01-25 07:21:00,
2013-01-25 01:32:00,24.0,8.0,-100.00,South,170,6.0,10.0,51,0.00,,,-99.99,,2013-01-25 07:32:00,
2013-01-25 01:42:00,24.0,8.0,-100.00,South,170,9.0,11.0,51,0.00,,,-99.99,,2013-01-25 07:42:00,
2013-01-25 01:51:00,23.0,8.0,-100.00,South,175,6.0,9.0,51,0.00,,,-99.99,,2013-01-25 07:51:00,
2013-01-25 02:01:00,23.0,8.0,-100.00,South,175,6.0,9.0,51,0.00,,,-99.99,,2013-01-25 08:01:00,
2013-01-25 02:11:00,24.0,9.0,-100.00,South,170,7.0,10.0,52,0.00,,,-99.99,,2013-01-25 08:11:00,
2013-01-25 02:21:00,24.0,9.0,-100.00,South,185,6.0,10.0,52,0.00,,,-99.99,,2013-01-25 08:21:00,
2013-01-25 02:32:00,23.0,9.0,-100.00,SSW,195,4.0,9.0,53,0.00,,,-99.99,,2013-01-25 08:32:00,
2013-01-25 02:41:00,23.0,9.0,-100.00,SSE,165,5.0,7.0,54,0.00,,,-99.99,,2013-01-25 08:41:00,
2013-01-25 02:52:00,23.0,10.0,-100.00,South,180,5.0,9.0,55,0.00,,,-99.99,,2013-01-25 08:52:00,
2013-01-25 03:01:00,23.0,10.0,-100.00,South,180,5.0,9.0,55,0.00,,,-99.99,,2013-01-25 09:01:00,
2013-01-25 03:11:00,23.0,10.0,-100.00,South,190,3.0,12.0,56,0.00,,,-99.99,,2013-01-25 09:11:00,
2013-01-25 03:21:00,23.0,10.0,-100.00,South,180,4.0,7.0,56,0.00,,,-99.99,,2013-01-25 09:21:00,
2013-01-25 03:31:00,23.0,11.0,-100.00,South,185,6.0,11.0,57,0.00,,,-99.99,,2013-01-25 09:31:00,
2013-01-25 03:41:00,23.0,11.0,-100.00,South,180,6.0,11.0,58,0.00,,,-99.99,,2013-01-25 09:41:00,
2013-01-25 03:51:00,23.0,12.0,-100.00,SSW,210,4.0,10.0,61,0.00,,,-99.99,,2013-01-25 09:51:00,
2013-01-25 04:02:00,23.0,12.0,-100.00,SSW,210,4.0,10.0,61,0.00,,,-99.99,,2013-01-25 10:02:00,
2013-01-25 04:12:00,23.0,13.0,-100.00,SW,220,7.0,10.0,63,0.00,,,-99.99,,2013-01-25 10:12:00,
2013-01-25 04:21:00,23.0,13.0,-100.00,SSW,210,4.0,9.0,64,0.00,,,-99.99,,2013-01-25 10:21:00,
2013-01-25 04:32:00,23.0,13.0,-100.00,WSW,250,4.0,6.0,65,0.00,,,-99.99,,2013-01-25 10:32:00,
2013-01-25 04:42:00,23.0,13.0,-100.00,WSW,255,2.0,5.0,65,0.00,,,-99.99,,2013-01-25 10:42:00,
2013-01-25 04:51:00,23.0,13.0,-100.00,West,260,3.0,7.0,66,0.00,,,-99.99,,2013-01-25 10:51:00,
2013-01-25 05:02:00,23.0,13.0,-100.00,West,260,3.0,7.0,66,0.00,,,-99.99,,2013-01-25 11:02:00,
2013-01-25 05:11:00,23.0,13.0,-100.00,SW,235,2.0,7.0,66,0.00,,,-99.99,,2013-01-25 11:11:00,
2013-01-25 05:22:00,23.0,13.0,-100.00,WSW,255,4.0,6.0,66,0.00,,,-99.99,,2013-01-25 11:22:00,
2013-01-25 05:32:00,23.0,14.0,-100.00,SW,230,2.0,3.0,66,0.00,,,-99.99,,2013-01-25 11:32:00,
2013-01-25 05:42:00,23.0,13.0,-100.00,SW,215,4.0,4.0,66,0.00,,,-99.99,,2013-01-25 11:42:00,
2013-01-25 05:52:00,23.0,14.0,-100.00,SW,215,3.0,5.0,67,0.00,,,-99.99,,2013-01-25 11:52:00,
2013-01-25 06:02:00,23.0,14.0,-100.00,SW,215,3.0,5.0,67,0.00,,,-99.99,,2013-01-25 12:02:00,
2013-01-25 06:11:00,23.0,14.0,-100.00,SSW,210,3.0,6.0,67,0.00,,,-99.99,,2013-01-25 12:11:00,
2013-01-25 06:22:00,23.0,14.0,-100.00,SW,215,4.0,4.0,67,0.00,,,-99.99,,2013-01-25 12:22:00,
2013-01-25 06:32:00,23.0,14.0,-100.00,SW,215,1.0,4.0,67,0.00,,,-99.99,,2013-01-25 12:32:00,
2013-01-25 06:42:00,23.0,14.0,-100.00,West,270,3.0,5.0,67,0.00,,,-99.99,,2013-01-25 12:42:00,
2013-01-25 06:52:00,23.0,14.0,-100.00,SSW,205,1.0,3.0,67,0.00,,,-99.99,,2013-01-25 12:52:00,
2013-01-25 07:02:00,23.0,14.0,-100.00,SSW,205,1.0,3.0,67,0.00,,,-99.99,,2013-01-25 13:02:00,
2013-01-25 07:11:00,23.0,14.0,-100.00,WSW,255,2.0,3.0,67,0.00,,,-99.99,,2013-01-25 13:11:00,
2013-01-25 07:22:00,22.0,13.0,-100.00,WSW,240,2.0,3.0,67,0.00,,,-99.99,,2013-01-25 13:22:00,
2013-01-25 07:32:00,22.0,13.0,-100.00,WSW,240,2.0,4.0,68,0.00,,,-99.99,,2013-01-25 13:32:00,
2013-01-25 07:42:00,22.0,13.0,-100.00,WSW,240,1.0,4.0,68,0.00,,,-99.99,,2013-01-25 13:42:00,
2013-01-25 07:52:00,21.0,13.0,-100.00,SW,215,1.0,2.0,69,0.00,,,-99.99,,2013-01-25 13:52:00,
2013-01-25 08:03:00,21.0,13.0,-100.00,SW,215,1.0,2.0,69,0.00,,,-99.99,,2013-01-25 14:03:00,
2013-01-25 08:12:00,21.0,13.0,-100.00,SW,230,0.0,1.0,71,0.00,,,-99.99,,2013-01-25 14:12:00,
2013-01-25 08:22:00,22.0,14.0,-100.00,SW,230,1.0,1.0,71,0.00,,,-99.99,,2013-01-25 14:22:00,
2013-01-25 08:32:00,22.0,14.0,-100.00,SW,230,1.0,3.0,70,0.00,,,-99.99,,2013-01-25 14:32:00,
2013-01-25 08:42:00,23.0,14.0,-100.00,West,275,2.0,4.0,69,0.00,,,-99.99,,2013-01-25 14:42:00,
2013-01-25 08:52:00,23.0,14.0,-100.00,WSW,245,2.0,6.0,66,0.00,,,-99.99,,2013-01-25 14:52:00,
2013-01-25 09:02:00,23.0,14.0,-100.00,WSW,245,2.0,6.0,66,0.00,,,-99.99,,2013-01-25 15:02:00,
2013-01-25 09:12:00,24.0,14.0,-100.00,SW,220,5.0,10.0,64,0.00,,,-99.99,,2013-01-25 15:12:00,
2013-01-25 09:22:00,24.0,14.0,-100.00,West,270,6.0,10.0,63,0.00,,,-99.99,,2013-01-25 15:22:00,
2013-01-25 09:32:00,25.0,14.0,-100.00,West,260,9.0,12.0,62,0.00,,,-99.99,,2013-01-25 15:32:00,
2013-01-25 09:42:00,26.0,13.0,-100.00,WSW,245,8.0,12.0,59,0.00,,,-99.99,,2013-01-25 15:42:00,
2013-01-25 09:52:00,27.0,13.0,-100.00,WSW,250,10.0,15.0,56,0.00,,,-99.99,,2013-01-25 15:52:00,
2013-01-25 10:03:00,27.0,13.0,-100.00,WSW,250,10.0,15.0,56,0.00,,,-99.99,,2013-01-25 16:03:00,
2013-01-25 10:12:00,27.0,13.0,-100.00,WSW,250,10.0,16.0,53,0.00,,,-99.99,,2013-01-25 16:12:00,
2013-01-25 10:22:00,28.0,13.0,-100.00,WSW,245,12.0,17.0,53,0.00,,,-99.99,,2013-01-25 16:22:00,
2013-01-25 10:32:00,29.0,13.0,-100.00,WSW,255,10.0,17.0,52,0.00,,,-99.99,,2013-01-25 16:32:00,
2013-01-25 10:42:00,30.0,14.0,-100.00,West,275,9.0,16.0,51,0.00,,,-99.99,,2013-01-25 16:42:00,
2013-01-25 10:52:00,30.0,14.0,-100.00,West,265,14.0,19.0,50,0.00,,,-99.99,,2013-01-25 16:52:00,
2013-01-25 11:02:00,30.0,14.0,-100.00,West,265,14.0,19.0,50,0.00,,,-99.99,,2013-01-25 17:02:00,
2013-01-25 11:12:00,31.0,14.0,-100.00,West,260,12.0,17.0,49,0.00,,,-99.99,,2013-01-25 17:12:00,
2013-01-25 11:22:00,31.0,14.0,-100.00,West,275,11.0,17.0,49,0.00,,,-99.99,,2013-01-25 17:22:00,
2013-01-25 11:32:00,32.0,15.0,-100.00,WSW,255,7.0,14.0,48,0.00,,,-99.99,,2013-01-25 17:32:00,
2013-01-25 11:42:00,33.0,15.0,-100.00,West,260,9.0,14.0,47,0.00,,,-99.99,,2013-01-25 17:42:00,
2013-01-25 11:52:00,34.0,16.0,-100.00,West,260,8.0,13.0,46,0.00,,,-99.99,,2013-01-25 17:52:00,
2013-01-25 12:03:00,34.0,16.0,-100.00,West,260,8.0,13.0,46,0.00,,,-99.99,,2013-01-25 18:03:00,
2013-01-25 12:11:00,34.0,16.0,-100.00,WSW,255,11.0,16.0,46,0.00,,,-99.99,,2013-01-25 18:11:00,
2013-01-25 12:23:00,35.0,16.0,-100.00,West,265,12.0,16.0,45,0.00,,,-99.99,,2013-01-25 18:23:00,
2013-01-25 12:33:00,36.0,17.0,-100.00,WSW,245,11.0,14.0,44,0.00,,,-99.99,,2013-01-25 18:33:00,
2013-01-25 12:42:00,37.0,17.0,-100.00,West,270,11.0,17.0,44,0.00,,,-99.99,,2013-01-25 18:42:00,
2013-01-25 12:52:00,37.0,17.0,-100.00,West,265,12.0,19.0,44,0.00,,,-99.99,,2013-01-25 18:52:00,
2013-01-25 13:03:00,38.0,18.0,-100.00,WSW,245,9.0,16.0,43,0.00,,,-99.99,,2013-01-25 19:03:00,
2013-01-25 13:12:00,39.0,18.0,-100.00,WSW,255,12.0,21.0,43,0.00,,,-99.99,,2013-01-25 19:12:00,
2013-01-25 13:22:00,39.0,18.0,-100.00,West,275,17.0,22.0,43,0.00,,,-99.99,,2013-01-25 19:22:00,
2013-01-25 13:32:00,40.0,19.0,-100.00,West,280,12.0,19.0,42,0.00,,,-99.99,,2013-01-25 19:32:00,
2013-01-25 13:42:00,40.0,19.0,-100.00,WNW,290,20.0,24.0,42,0.00,,,-99.99,,2013-01-25 19:42:00,
2013-01-25 13:52:00,41.0,20.0,-100.00,WNW,285,13.0,22.0,41,0.00,,,-99.99,,2013-01-25 19:52:00,
2013-01-25 14:02:00,41.0,20.0,-100.00,WNW,285,13.0,22.0,41,0.00,,,-99.99,,2013-01-25 20:02:00,
2013-01-25 14:12:00,42.0,20.0,-100.00,WNW,295,16.0,20.0,41,0.00,,,-99.99,,2013-01-25 20:12:00,
2013-01-25 14:22:00,42.0,20.0,-100.00,West,280,16.0,22.0,41,0.00,,,-99.99,,2013-01-25 20:22:00,
2013-01-25 14:32:00,42.0,20.0,-100.00,WNW,290,17.0,21.0,41,0.00,,,-99.99,,2013-01-25 20:32:00,
2013-01-25 14:42:00,42.0,20.0,-100.00,WNW,290,15.0,19.0,41,0.00,,,-99.99,,2013-01-25 20:42:00,
2013-01-25 14:52:00,42.0,20.0,-100.00,NW,310,16.0,22.0,41,0.00,,,-99.99,,2013-01-25 20:52:00,
2013-01-25 15:02:00,42.0,20.0,-100.00,NW,310,16.0,22.0,41,0.00,,,-99.99,,2013-01-25 21:02:00,
2013-01-25 15:11:00,42.0,20.0,-100.00,West,280,16.0,21.0,41,0.00,,,-99.99,,2013-01-25 21:11:00,
2013-01-25 15:22:00,42.0,21.0,-100.00,WNW,285,12.0,19.0,41,0.00,,,-99.99,,2013-01-25 21:22:00,
2013-01-25 15:32:00,42.0,21.0,-100.00,West,275,12.0,17.0,41,0.00,,,-99.99,,2013-01-25 21:32:00,
2013-01-25 15:42:00,41.0,20.0,-100.00,WNW,300,19.0,25.0,42,0.00,,,-99.99,,2013-01-25 21:42:00,
2013-01-25 15:52:00,42.0,21.0,-100.00,NW,310,14.0,19.0,43,0.00,,,-99.99,,2013-01-25 21:52:00,
2013-01-25 16:02:00,42.0,21.0,-100.00,NW,310,14.0,19.0,43,0.00,,,-99.99,,2013-01-25 22:02:00,
2013-01-25 16:11:00,41.0,21.0,-100.00,WNW,300,12.0,17.0,43,0.00,,,-99.99,,2013-01-25 22:11:00,
2013-01-25 16:22:00,41.0,21.0,-100.00,WNW,295,16.0,21.0,43,0.00,,,-99.99,,2013-01-25 22:22:00,
2013-01-25 16:32:00,41.0,21.0,-100.00,WNW,285,14.0,26.0,44,0.00,,,-99.99,,2013-01-25 22:32:00,
2013-01-25 16:42:00,40.0,21.0,-100.00,WNW,300,10.0,21.0,45,0.00,,,-99.99,,2013-01-25 22:42:00,
2013-01-25 16:51:00,40.0,21.0,-100.00,NW,305,11.0,21.0,46,0.00,,,-99.99,,2013-01-25 22:51:00,
2013-01-25 17:02:00,40.0,21.0,-100.00,NW,305,11.0,21.0,46,0.00,,,-99.99,,2013-01-25 23:02:00,
2013-01-25 17:11:00,39.0,21.0,-100.00,WNW,300,7.0,14.0,48,0.00,,,-99.99,,2013-01-25 23:11:00,
2013-01-25 17:22:00,38.0,21.0,-100.00,NW,310,7.0,12.0,49,0.00,,,-99.99,,2013-01-25 23:22:00,
2013-01-25 17:32:00,37.0,21.0,-100.00,WNW,300,6.0,9.0,50,0.00,,,-99.99,,2013-01-25 23:32:00,
2013-01-25 17:42:00,37.0,21.0,-100.00,NW,310,7.0,9.0,52,0.00,,,-99.99,,2013-01-25 23:42:00,
2013-01-25 17:52:00,36.0,21.0,-100.00,NW,310,7.0,8.0,54,0.00,,,-99.99,,2013-01-25 23:52:00,
2013-01-25 18:02:00,36.0,21.0,-100.00,NW,310,7.0,8.0,54,0.00,,,-99.99,,2013-01-26 00:02:00,
2013-01-25 18:11:00,35.0,21.0,-100.00,WNW,295,6.0,9.0,56,0.00,,,-99.99,,2013-01-26 00:11:00,
2013-01-25 18:22:00,35.0,21.0,-100.00,WNW,295,6.0,8.0,57,0.00,,,-99.99,,2013-01-26 00:22:00,
2013-01-25 18:32:00,34.0,21.0,-100.00,WNW,300,6.0,10.0,58,0.00,,,-99.99,,2013-01-26 00:32:00,
2013-01-25 18:42:00,34.0,22.0,-100.00,NW,305,4.0,6.0,60,0.00,,,-99.99,,2013-01-26 00:42:00,
2013-01-25 18:52:00,34.0,22.0,-100.00,NW,310,6.0,7.0,61,0.00,,,-99.99,,2013-01-26 00:52:00,
2013-01-25 19:01:00,34.0,22.0,-100.00,NW,310,6.0,7.0,61,0.00,,,-99.99,,2013-01-26 01:01:00,
2013-01-25 19:11:00,33.0,22.0,-100.00,NW,310,7.0,9.0,62,0.00,,,-99.99,,2013-01-26 01:11:00,
2013-01-25 19:22:00,33.0,22.0,-100.00,WNW,300,7.0,9.0,63,0.00,,,-99.99,,2013-01-26 01:22:00,
2013-01-25 19:32:00,33.0,22.0,-100.00,NW,310,9.0,11.0,63,0.00,,,-99.99,,2013-01-26 01:32:00,
2013-01-25 19:42:00,32.0,22.0,-100.00,NW,310,8.0,12.0,64,0.00,,,-99.99,,2013-01-26 01:42:00,
2013-01-25 19:52:00,32.0,22.0,-100.00,WNW,300,11.0,16.0,64,0.00,,,-99.99,,2013-01-26 01:52:00,
2013-01-25 20:01:00,32.0,22.0,-100.00,WNW,300,11.0,16.0,64,0.00,,,-99.99,,2013-01-26 02:01:00,
2013-01-25 20:11:00,32.0,22.0,-100.00,WNW,300,10.0,16.0,65,0.00,,,-99.99,,2013-01-26 02:11:00,
2013-01-25 20:22:00,32.0,22.0,-100.00,NW,305,11.0,16.0,65,0.00,,,-99.99,,2013-01-26 02:22:00,
2013-01-25 20:32:00,32.0,22.0,-100.00,NW,310,11.0,16.0,65,0.00,,,-99.99,,2013-01-26 02:32:00,
2013-01-25 20:42:00,32.0,22.0,-100.00,NW,305,9.0,16.0,66,0.00,,,-99.99,,2013-01-26 02:42:00,
2013-01-25 20:52:00,31.0,21.0,-100.00,NNW,335,13.0,22.0,67,0.00,,,-99.99,,2013-01-26 02:52:00,
2013-01-25 21:02:00,31.0,21.0,-100.00,NNW,335,13.0,22.0,67,0.00,,,-99.99,,2013-01-26 03:02:00,
2013-01-25 21:11:00,27.0,17.0,-100.00,NNW,335,14.0,21.0,64,0.00,,,-99.99,,2013-01-26 03:11:00,
2013-01-25 21:21:00,26.0,16.0,-100.00,NNW,335,12.0,19.0,63,0.00,,,-99.99,,2013-01-26 03:21:00,
2013-01-25 21:31:00,26.0,15.0,-100.00,NNW,340,12.0,16.0,63,0.00,,,-99.99,,2013-01-26 03:31:00,
2013-01-25 21:42:00,24.0,13.0,-100.00,NNW,340,13.0,18.0,63,0.00,,,-99.99,,2013-01-26 03:42:00,
2013-01-25 21:51:00,23.0,11.0,-100.00,NNW,340,16.0,23.0,60,0.00,,,-99.99,,2013-01-26 03:51:00,
2013-01-25 22:02:00,23.0,11.0,-100.00,NNW,340,16.0,23.0,60,0.00,,,-99.99,,2013-01-26 04:02:00,
2013-01-25 22:12:00,22.0,10.0,-100.00,NNW,345,12.0,21.0,59,0.00,,,-99.99,,2013-01-26 04:12:00,
2013-01-25 22:21:00,22.0,10.0,-100.00,NW,325,11.0,17.0,59,0.00,,,-99.99,,2013-01-26 04:21:00,
2013-01-25 22:32:00,22.0,10.0,-100.00,NW,325,11.0,18.0,59,0.00,,,-99.99,,2013-01-26 04:32:00,
2013-01-25 22:42:00,21.0,9.0,-100.00,NW,325,9.0,15.0,59,0.00,,,-99.99,,2013-01-26 04:42:00,
2013-01-25 22:52:00,20.0,8.0,-100.00,NNW,340,9.0,14.0,59,0.00,,,-99.99,,2013-01-26 04:52:00,
2013-01-25 23:03:00,20.0,8.0,-100.00,NNW,340,9.0,14.0,59,0.00,,,-99.99,,2013-01-26 05:03:00,
2013-01-25 23:12:00,20.0,8.0,-100.00,NNW,330,9.0,13.0,59,0.00,,,-99.99,,2013-01-26 05:12:00,
2013-01-25 23:23:00,19.0,8.0,-100.00,NNW,335,9.0,12.0,59,0.00,,,-99.99,,2013-01-26 05:23:00,
2013-01-25 23:33:00,19.0,8.0,-100.00,NNW,340,8.0,12.0,60,0.00,,,-99.99,,2013-01-26 05:33:00,
2013-01-25 23:41:00,18.0,7.0,-100.00,NNW,345,10.0,14.0,60,0.00,,,-99.99,,2013-01-26 05:41:00,
2013-01-25 23:52:00,18.0,6.0,-100.00,NNW,330,8.0,14.0,59,0.00,,,-99.99,,2013-01-26 05:52:00,